createdAt,value
2018-06-23T00:02:14.595Z,101158.20
2018-06-23T00:04:43.201Z,101157.09
2018-06-23T00:07:11.790Z,101160.05
2018-06-23T00:09:40.514Z,101161.02
2018-06-23T00:12:09.097Z,101155.53
2018-06-23T00:14:37.581Z,101155.44
2018-06-23T00:17:06.222Z,101152.52
2018-06-23T00:19:34.749Z,101156.95
2018-06-23T00:22:03.317Z,101159.56
2018-06-23T00:24:31.885Z,101160.44
2018-06-23T00:27:00.351Z,101164.77
2018-06-23T00:29:29.282Z,101157.12
2018-06-23T00:31:57.873Z,101161.00
2018-06-23T00:34:26.890Z,101160.09
2018-06-23T00:36:55.474Z,101155.03
2018-06-23T00:39:24.037Z,101155.94
2018-06-23T00:41:52.494Z,101154.48
2018-06-23T00:44:21.080Z,101156.17
2018-06-23T00:46:49.766Z,101154.44
2018-06-23T00:49:18.313Z,101159.23
2018-06-23T00:51:46.791Z,101160.14
2018-06-23T00:54:15.348Z,101158.56
2018-06-23T00:56:43.917Z,101160.21
2018-06-23T00:59:23.636Z,101159.86
2018-06-23T01:01:52.363Z,101159.03
2018-06-23T01:04:20.921Z,101160.73
2018-06-23T01:06:49.504Z,101159.09
2018-06-23T01:09:17.998Z,101160.95
2018-06-23T01:11:46.662Z,101156.33
2018-06-23T01:14:15.190Z,101148.27
2018-06-23T01:16:43.723Z,101162.41
2018-06-23T01:19:12.466Z,101166.28
2018-06-23T01:21:41.117Z,101163.38
2018-06-23T01:24:09.731Z,101166.45
2018-06-23T01:26:38.372Z,101166.09
2018-06-23T01:29:07.100Z,101167.42
2018-06-23T01:31:35.784Z,101166.98
2018-06-23T01:34:04.372Z,101166.14
2018-06-23T01:36:32.895Z,101171.36
2018-06-23T01:39:01.484Z,101166.23
2018-06-23T01:41:30.095Z,101165.80
2018-06-23T01:43:58.854Z,101163.73
2018-06-23T01:46:27.371Z,101158.60
2018-06-23T01:48:55.985Z,101160.34
2018-06-23T01:51:24.562Z,101153.14
2018-06-23T01:53:53.200Z,101151.45
2018-06-23T01:56:21.803Z,101151.45
2018-06-23T01:58:50.374Z,101151.91
2018-06-23T02:01:19.010Z,101156.63
2018-06-23T02:03:47.763Z,101148.55
2018-06-23T02:06:17.020Z,101145.94
2018-06-23T02:08:46.158Z,101144.75
2018-06-23T02:11:14.779Z,101140.02
2018-06-23T02:13:43.620Z,101142.63
2018-06-23T02:18:24.091Z,101144.35
2018-06-23T02:20:57.872Z,101137.98
2018-06-23T02:23:31.542Z,101139.27
2018-06-23T02:26:05.401Z,101138.83
2018-06-23T02:28:39.513Z,101138.83
2018-06-23T02:31:13.405Z,101140.55
2018-06-23T02:33:47.224Z,101138.87
2018-06-23T02:36:15.820Z,101134.20
2018-06-23T02:38:44.402Z,101141.04
2018-06-23T02:41:13.167Z,101137.20
2018-06-23T02:43:41.654Z,101135.92
2018-06-23T02:46:10.163Z,101131.64
2018-06-23T02:48:38.702Z,101126.98
2018-06-23T02:51:07.930Z,101127.44
2018-06-23T02:53:36.449Z,101128.27
2018-06-23T02:56:05.098Z,101131.23
2018-06-23T02:58:33.692Z,101124.44
2018-06-23T03:01:02.256Z,101121.91
2018-06-23T03:03:30.881Z,101118.87
2018-06-23T03:05:59.407Z,101118.51
2018-06-23T03:08:28.026Z,101107.38
2018-06-23T03:10:56.603Z,101118.03
2018-06-23T03:13:25.115Z,101114.22
2018-06-23T03:15:53.693Z,101110.83
2018-06-23T03:18:22.303Z,101121.08
2018-06-23T03:20:50.820Z,101121.08
2018-06-23T03:23:25.930Z,101120.23
2018-06-23T03:25:54.447Z,101121.91
2018-06-23T03:28:23.182Z,101122.75
2018-06-23T03:30:51.763Z,101118.03
2018-06-23T03:33:20.397Z,101117.55
2018-06-23T03:35:48.931Z,101120.59
2018-06-23T03:38:17.456Z,101121.86
2018-06-23T03:40:45.992Z,101119.71
2018-06-23T03:43:14.597Z,101123.11
2018-06-23T03:45:44.087Z,101123.91
2018-06-23T03:48:12.666Z,101121.78
2018-06-23T03:50:41.179Z,101127.78
2018-06-23T03:53:09.646Z,101126.02
2018-06-23T03:55:38.176Z,101121.78
2018-06-23T03:58:07.019Z,101121.73
2018-06-23T04:00:35.515Z,101123.02
2018-06-23T04:03:04.047Z,101120.45
2018-06-23T04:05:32.777Z,101113.60
2018-06-23T04:08:01.285Z,101116.17
2018-06-23T04:10:29.846Z,101110.66
2018-06-23T04:12:58.614Z,101114.89
2018-06-23T04:15:27.149Z,101115.77
2018-06-23T04:17:55.689Z,101120.89
2018-06-23T04:20:24.504Z,101118.37
2018-06-23T04:22:53.008Z,101128.98
2018-06-23T04:25:23.157Z,101126.95
2018-06-23T04:27:51.799Z,101126.02
2018-06-23T04:30:20.271Z,101123.95
2018-06-23T04:32:48.799Z,101132.12
2018-06-23T04:35:17.373Z,101130.48
2018-06-23T04:37:46.159Z,101130.03
2018-06-23T04:40:14.628Z,101126.27
2018-06-23T04:42:43.280Z,101137.44
2018-06-23T04:45:12.006Z,101134.44
2018-06-23T04:47:40.525Z,101127.63
2018-06-23T04:50:09.366Z,101124.66
2018-06-23T04:52:37.977Z,101125.07
2018-06-23T04:55:06.518Z,101125.44
2018-06-23T04:57:35.487Z,101111.80
2018-06-23T05:00:04.127Z,101119.95
2018-06-23T05:02:32.677Z,101122.11
2018-06-23T05:05:01.234Z,101116.98
2018-06-23T05:07:30.049Z,101114.42
2018-06-23T05:09:58.549Z,101119.55
2018-06-23T05:12:27.071Z,101119.98
2018-06-23T05:14:55.698Z,101111.86
2018-06-23T05:17:24.300Z,101114.39
2018-06-23T05:19:52.870Z,101109.23
2018-06-23T05:22:21.697Z,101110.14
2018-06-23T05:24:50.425Z,101102.46
2018-06-23T05:27:18.949Z,101104.55
2018-06-23T05:29:47.450Z,101102.78
2018-06-23T05:32:16.266Z,101109.23
2018-06-23T05:34:44.803Z,101104.50
2018-06-23T05:37:13.346Z,101107.91
2018-06-23T05:39:41.915Z,101114.79
2018-06-23T05:42:10.478Z,101116.91
2018-06-23T05:44:39.034Z,101104.91
2018-06-23T05:47:07.575Z,101115.59
2018-06-23T05:49:36.111Z,101114.67
2018-06-23T05:52:04.741Z,101113.39
2018-06-23T05:54:33.300Z,101118.95
2018-06-23T05:57:01.836Z,101115.50
2018-06-23T05:59:30.777Z,101109.50
2018-06-23T06:01:59.510Z,101120.59
2018-06-23T06:04:28.069Z,101120.09
2018-06-23T06:06:56.798Z,101117.54
2018-06-23T06:09:25.553Z,101120.49
2018-06-23T06:11:54.274Z,101127.30
2018-06-23T06:14:22.929Z,101121.73
2018-06-23T06:17:54.046Z,101111.05
2018-06-23T06:20:22.742Z,101116.52
2018-06-23T06:22:51.295Z,101114.84
2018-06-23T06:25:20.818Z,101112.61
2018-06-23T06:27:49.592Z,101108.72
2018-06-23T06:30:18.133Z,101113.02
2018-06-23T06:32:47.100Z,101115.57
2018-06-23T06:35:15.735Z,101115.56
2018-06-23T06:37:45.399Z,101108.22
2018-06-23T06:40:13.959Z,101114.17
2018-06-23T06:42:42.541Z,101113.73
2018-06-23T06:45:11.040Z,101112.41
2018-06-23T06:47:39.606Z,101104.27
2018-06-23T06:50:08.197Z,101107.27
2018-06-23T06:52:36.861Z,101107.16
2018-06-23T06:55:05.643Z,101111.00
2018-06-23T06:57:34.251Z,101111.00
2018-06-23T07:00:02.763Z,101116.52
2018-06-23T07:02:31.263Z,101115.23
2018-06-23T07:05:00.022Z,101106.59
2018-06-23T07:07:28.823Z,101104.48
2018-06-23T07:09:57.423Z,101103.98
2018-06-23T07:12:26.007Z,101108.60
2018-06-23T07:14:54.774Z,101099.61
2018-06-23T07:17:23.312Z,101095.20
2018-06-23T07:19:52.566Z,101102.00
2018-06-23T07:22:21.055Z,101101.09
2018-06-23T07:24:49.671Z,101096.28
2018-06-23T07:27:18.252Z,101100.49
2018-06-23T07:29:46.980Z,101110.38
2018-06-23T07:32:15.840Z,101108.50
2018-06-23T07:34:44.957Z,101108.88
2018-06-23T07:37:13.965Z,101114.39
2018-06-23T07:39:45.841Z,101110.09
2018-06-23T07:42:14.711Z,101111.29
2018-06-23T07:44:43.335Z,101110.82
2018-06-23T07:47:11.966Z,101112.94
2018-06-23T07:49:40.494Z,101115.06
2018-06-23T07:52:09.190Z,101108.20
2018-06-23T07:54:37.858Z,101109.95
2018-06-23T07:57:06.625Z,101115.83
2018-06-23T07:59:35.161Z,101112.86
2018-06-23T08:02:03.817Z,101120.67
2018-06-23T08:04:32.951Z,101116.88
2018-06-23T08:07:01.877Z,101114.00
2018-06-23T08:09:30.808Z,101107.14
2018-06-23T08:11:59.694Z,101112.95
2018-06-23T08:14:28.541Z,101104.78
2018-06-23T08:16:57.332Z,101104.40
2018-06-23T08:19:26.243Z,101107.37
2018-06-23T08:21:54.843Z,101104.42
2018-06-23T08:24:23.674Z,101112.95
2018-06-23T08:26:52.198Z,101107.36
2018-06-23T08:29:20.865Z,101105.16
2018-06-23T08:31:49.687Z,101115.36
2018-06-23T08:34:18.305Z,101120.52
2018-06-23T08:36:47.006Z,101120.70
2018-06-23T08:39:16.109Z,101119.44
2018-06-23T08:41:44.933Z,101117.61
2018-06-23T08:44:15.429Z,101112.89
2018-06-23T08:46:44.571Z,101120.47
2018-06-23T08:49:13.285Z,101104.23
2018-06-23T08:51:42.206Z,101110.40
2018-06-23T08:54:10.752Z,101111.05
2018-06-23T08:56:39.633Z,101105.43
2018-06-23T08:59:08.197Z,101103.09
2018-06-23T09:01:37.048Z,101105.16
2018-06-23T09:04:06.503Z,101104.73
2018-06-23T09:06:36.009Z,101104.68
2018-06-23T09:09:06.999Z,101097.03
2018-06-23T09:11:35.528Z,101098.91
2018-06-23T09:14:04.543Z,101097.69
2018-06-23T09:16:33.066Z,101102.75
2018-06-23T09:19:01.666Z,101091.95
2018-06-23T09:21:30.500Z,101102.76
2018-06-23T09:23:59.022Z,101098.36
2018-06-23T09:26:27.886Z,101100.51
2018-06-23T09:28:56.405Z,101095.80
2018-06-23T09:31:25.118Z,101099.91
2018-06-23T09:33:54.649Z,101095.08
2018-06-23T09:36:23.273Z,101092.22
2018-06-23T09:38:52.090Z,101094.48
2018-06-23T09:41:20.857Z,101092.86
2018-06-23T09:43:49.621Z,101094.08
2018-06-23T09:46:18.356Z,101096.59
2018-06-23T09:48:46.866Z,101090.39
2018-06-23T09:51:15.740Z,101100.38
2018-06-23T09:53:44.350Z,101109.83
2018-06-23T09:56:13.638Z,101110.23
2018-06-23T09:58:42.884Z,101111.75
2018-06-23T10:01:12.536Z,101118.11
2018-06-23T10:03:42.018Z,101115.38
2018-06-23T10:06:11.158Z,101127.62
2018-06-23T10:08:40.024Z,101119.70
2018-06-23T10:11:09.028Z,101115.55
2018-06-23T10:13:37.570Z,101109.77
2018-06-23T10:16:07.114Z,101119.94
2018-06-23T10:18:35.641Z,101116.02
2018-06-23T10:21:04.488Z,101115.50
2018-06-23T10:23:34.414Z,101120.98
2018-06-23T10:26:03.427Z,101115.16
2018-06-23T10:28:32.724Z,101109.59
2018-06-23T10:31:02.334Z,101102.82
2018-06-23T10:33:30.930Z,101120.83
2018-06-23T10:35:59.870Z,101115.78
2018-06-23T10:38:28.609Z,101114.55
2018-06-23T10:40:57.225Z,101113.05
2018-06-23T10:43:25.910Z,101111.63
2018-06-23T10:45:54.771Z,101105.88
2018-06-23T10:48:23.325Z,101100.51
2018-06-23T10:50:51.923Z,101110.20
2018-06-23T10:53:21.115Z,101107.06
2018-06-23T10:55:49.970Z,101112.63
2018-06-23T10:58:19.085Z,101121.81
2018-06-23T11:00:48.027Z,101133.89
2018-06-23T11:03:16.881Z,101130.86
2018-06-23T11:05:46.380Z,101135.52
2018-06-23T11:08:15.677Z,101142.42
2018-06-23T11:10:44.698Z,101143.74
2018-06-23T11:13:13.512Z,101143.09
2018-06-23T11:15:42.780Z,101140.57
2018-06-23T11:18:11.343Z,101136.62
2018-06-23T11:20:41.921Z,101128.21
2018-06-23T11:23:11.920Z,101139.08
2018-06-23T11:25:41.108Z,101152.17
2018-06-23T11:28:10.746Z,101136.48
2018-06-23T11:30:39.721Z,101142.07
2018-06-23T11:33:09.450Z,101142.40
2018-06-23T11:35:42.113Z,101139.55
2018-06-23T11:38:27.098Z,101139.53
2018-06-23T11:43:49.540Z,101124.84
2018-06-23T11:46:19.908Z,101118.93
2018-06-23T11:48:50.033Z,101114.95
2018-06-23T11:51:18.661Z,101115.02
2018-06-23T11:53:47.274Z,101099.52
2018-06-23T11:56:16.234Z,101110.54
2018-06-23T11:58:45.124Z,101101.95
2018-06-23T12:01:14.317Z,101099.77
2018-06-23T12:03:44.035Z,101094.63
2018-06-23T12:06:13.117Z,101107.69
2018-06-23T12:08:41.978Z,101090.45
2018-06-23T12:11:10.544Z,101101.27
2018-06-23T12:13:39.658Z,101104.91
2018-06-23T12:16:08.757Z,101108.55
2018-06-23T12:18:39.515Z,101124.38
2018-06-23T12:21:08.520Z,101108.83
2018-06-23T12:23:37.491Z,101114.42
2018-06-23T12:26:06.410Z,101115.96
2018-06-23T12:28:35.235Z,101116.14
2018-06-23T12:31:03.786Z,101116.84
2018-06-23T12:33:32.462Z,101123.56
2018-06-23T12:36:01.686Z,101123.45
2018-06-23T12:38:30.838Z,101125.86
2018-06-23T12:40:59.760Z,101118.59
2018-06-23T12:43:28.560Z,101124.25
2018-06-23T12:45:57.074Z,101136.12
2018-06-23T12:48:25.732Z,101133.78
2018-06-23T12:50:55.033Z,101121.70
2018-06-23T12:53:23.643Z,101132.97
2018-06-23T12:55:52.365Z,101126.52
2018-06-23T12:58:21.179Z,101119.70
2018-06-23T13:00:49.696Z,101118.75
2018-06-23T13:03:18.371Z,101123.09
2018-06-23T13:05:47.278Z,101124.58
2018-06-23T13:08:16.232Z,101126.50
2018-06-23T13:10:44.837Z,101133.47
2018-06-23T13:13:13.725Z,101124.22
2018-06-23T13:15:42.339Z,101134.69
2018-06-23T13:18:11.919Z,101129.44
2018-06-23T13:20:41.316Z,101125.02
2018-06-23T13:23:10.420Z,101127.34
2018-06-23T13:25:39.089Z,101135.53
2018-06-23T13:28:09.504Z,101132.56
2018-06-23T13:30:38.101Z,101134.76
2018-06-23T13:33:06.946Z,101132.75
2018-06-23T13:35:37.675Z,101140.30
2018-06-23T13:38:06.364Z,101130.66
2018-06-23T13:40:35.193Z,101134.66
2018-06-23T13:43:03.906Z,101131.69
2018-06-23T13:45:32.722Z,101131.55
2018-06-23T13:48:01.284Z,101127.48
2018-06-23T13:50:32.028Z,101134.90
2018-06-23T13:53:01.325Z,101133.67
2018-06-23T13:55:30.078Z,101125.52
2018-06-23T13:57:58.628Z,101134.30
2018-06-23T14:00:27.482Z,101136.38
2018-06-23T14:02:56.146Z,101137.81
2018-06-23T14:05:24.980Z,101134.72
2018-06-23T14:07:53.781Z,101133.94
2018-06-23T14:10:22.528Z,101140.02
2018-06-23T14:12:51.420Z,101133.02
2018-06-23T14:15:21.103Z,101133.41
2018-06-23T14:17:49.804Z,101144.48
2018-06-23T14:20:22.866Z,101135.59
2018-06-23T14:22:51.465Z,101129.86
2018-06-23T14:25:20.377Z,101129.26
2018-06-23T14:27:48.957Z,101127.70
2018-06-23T14:30:17.641Z,101132.02
2018-06-23T14:32:46.454Z,101126.41
2018-06-23T14:35:16.882Z,101132.05
2018-06-23T14:37:47.735Z,101128.19
2018-06-23T14:40:16.818Z,101133.31
2018-06-23T14:42:46.983Z,101127.55
2018-06-23T14:45:15.875Z,101127.75
2018-06-23T14:47:45.090Z,101131.56
2018-06-23T14:50:13.866Z,101131.48
2018-06-23T14:52:42.590Z,101127.12
2018-06-23T14:55:11.302Z,101125.51
2018-06-23T14:57:39.928Z,101122.80
2018-06-23T15:00:08.534Z,101128.66
2018-06-23T15:02:37.235Z,101129.49
2018-06-23T15:05:06.123Z,101121.25
2018-06-23T15:07:34.824Z,101121.59
2018-06-23T15:10:14.445Z,101117.30
2018-06-23T15:12:54.109Z,101115.20
2018-06-23T15:15:22.771Z,101111.78
2018-06-23T15:17:51.625Z,101111.21
2018-06-23T15:20:20.377Z,101114.33
2018-06-23T15:22:49.004Z,101104.97
2018-06-23T15:25:17.917Z,101111.78
2018-06-23T15:27:46.686Z,101110.47
2018-06-23T15:30:15.210Z,101108.81
2018-06-23T15:32:43.895Z,101107.58
2018-06-23T15:35:12.738Z,101109.05
2018-06-23T15:37:41.268Z,101103.78
2018-06-23T15:40:09.852Z,101107.26
2018-06-23T15:42:38.482Z,101102.58
2018-06-23T15:45:07.482Z,101107.62
2018-06-23T15:47:36.237Z,101110.11
2018-06-23T15:50:04.854Z,101104.98
2018-06-23T15:52:33.409Z,101107.08
2018-06-23T15:55:02.108Z,101102.82
2018-06-23T15:57:30.789Z,101105.58
2018-06-23T15:59:59.384Z,101095.59
2018-06-23T16:02:28.050Z,101096.38
2018-06-23T16:04:56.522Z,101092.05
2018-06-23T16:07:25.155Z,101092.86
2018-06-23T16:09:53.758Z,101093.46
2018-06-23T16:12:22.322Z,101083.72
2018-06-23T16:14:51.124Z,101086.89
2018-06-23T16:17:19.742Z,101080.48
2018-06-23T16:19:48.290Z,101089.33
2018-06-23T16:22:16.909Z,101077.42
2018-06-23T16:24:45.610Z,101090.08
2018-06-23T16:27:14.522Z,101084.53
2018-06-23T16:29:43.147Z,101089.48
2018-06-23T16:32:11.727Z,101091.30
2018-06-23T16:34:40.491Z,101094.78
2018-06-23T16:37:09.054Z,101094.27
2018-06-23T16:39:37.722Z,101095.27
2018-06-23T16:42:06.805Z,101086.98
2018-06-23T16:44:35.519Z,101096.46
2018-06-23T16:47:04.123Z,101094.78
2018-06-23T16:49:33.618Z,101093.55
2018-06-23T16:52:02.477Z,101100.81
2018-06-23T16:54:31.205Z,101100.00
2018-06-23T16:56:59.903Z,101099.52
2018-06-23T16:59:28.657Z,101104.98
2018-06-23T17:01:57.297Z,101100.00
2018-06-23T17:04:25.871Z,101096.48
2018-06-23T17:06:54.715Z,101106.32
2018-06-23T17:09:23.491Z,101100.44
2018-06-23T17:11:52.038Z,101099.16
2018-06-23T17:14:20.652Z,101101.34
2018-06-23T17:16:49.356Z,101097.89
2018-06-23T17:19:18.224Z,101093.66
2018-06-23T17:21:47.148Z,101091.51
2018-06-23T17:24:15.674Z,101085.96
2018-06-23T17:26:44.648Z,101091.56
2018-06-23T17:29:13.133Z,101089.08
2018-06-23T17:31:42.269Z,101086.52
2018-06-23T17:34:10.841Z,101080.65
2018-06-23T17:36:40.285Z,101089.66
2018-06-23T17:39:10.177Z,101093.08
2018-06-23T17:41:39.267Z,101090.95
2018-06-23T17:44:11.764Z,101092.72
2018-06-23T17:46:43.459Z,101094.40
2018-06-23T17:49:16.297Z,101099.19
2018-06-23T17:51:49.588Z,101101.34
2018-06-23T17:54:23.471Z,101098.15
2018-06-23T17:56:57.132Z,101089.13
2018-06-23T17:59:29.895Z,101095.94
2018-06-23T18:01:58.491Z,101089.50
2018-06-23T18:04:35.304Z,101089.86
2018-06-23T18:07:04.390Z,101098.98
2018-06-23T18:09:32.951Z,101095.96
2018-06-23T18:12:02.060Z,101092.69
2018-06-23T18:14:31.442Z,101098.67
2018-06-23T18:17:00.079Z,101087.16
2018-06-23T18:19:30.229Z,101094.41
2018-06-23T18:21:58.859Z,101092.28
2018-06-23T18:24:32.693Z,101087.72
2018-06-23T18:27:02.518Z,101088.22
2018-06-23T18:29:32.011Z,101087.87
2018-06-23T18:32:01.183Z,101087.77
2018-06-23T18:34:32.406Z,101093.84
2018-06-23T18:37:05.215Z,101096.39
2018-06-23T18:39:36.434Z,101099.36
2018-06-23T18:42:05.604Z,101103.28
2018-06-23T18:44:34.154Z,101100.34
2018-06-23T18:47:02.913Z,101099.44
2018-06-23T18:49:31.624Z,101102.83
2018-06-23T18:52:00.644Z,101098.94
2018-06-23T18:54:29.522Z,101100.23
2018-06-23T18:56:58.038Z,101098.97
2018-06-23T18:59:26.557Z,101107.51
2018-06-23T19:01:55.685Z,101104.94
2018-06-23T19:04:24.148Z,101105.77
2018-06-23T19:06:52.818Z,101108.66
2018-06-23T19:09:21.427Z,101103.64
2018-06-23T19:11:49.978Z,101097.66
2018-06-23T19:14:18.551Z,101101.16
2018-06-23T19:16:47.196Z,101102.48
2018-06-23T19:19:16.011Z,101102.91
2018-06-23T19:21:44.706Z,101102.48
2018-06-23T19:24:13.306Z,101098.70
2018-06-23T19:26:41.936Z,101101.67
2018-06-23T19:29:10.955Z,101106.83
2018-06-23T19:31:39.970Z,101100.52
2018-06-23T19:34:08.594Z,101115.94
2018-06-23T19:36:37.727Z,101117.25
2018-06-23T19:39:08.600Z,101113.10
2018-06-23T19:41:37.438Z,101110.59
2018-06-23T19:44:06.247Z,101111.52
2018-06-23T19:46:34.974Z,101111.49
2018-06-23T19:49:03.754Z,101115.01
2018-06-23T19:51:32.440Z,101112.52
2018-06-23T19:54:00.953Z,101126.67
2018-06-23T19:56:29.917Z,101123.69
2018-06-23T19:58:58.506Z,101119.53
2018-06-23T20:01:27.195Z,101117.88
2018-06-23T20:03:56.447Z,101118.73
2018-06-23T20:06:25.295Z,101124.78
2018-06-23T20:08:54.254Z,101124.99
2018-06-23T20:11:23.096Z,101134.51
2018-06-23T20:13:51.939Z,101140.64
2018-06-23T20:16:20.467Z,101131.83
2018-06-23T20:18:49.378Z,101139.55
2018-06-23T20:21:18.249Z,101139.67
2018-06-23T20:23:47.040Z,101143.55
2018-06-23T20:26:15.903Z,101146.59
2018-06-23T20:28:44.650Z,101141.98
2018-06-23T20:31:13.495Z,101148.80
2018-06-23T20:33:42.018Z,101145.94
2018-06-23T20:36:10.926Z,101145.95
2018-06-23T20:38:39.920Z,101147.39
2018-06-23T20:41:08.972Z,101143.17
2018-06-23T20:43:37.918Z,101145.80
2018-06-23T20:46:06.450Z,101146.20
2018-06-23T20:48:35.500Z,101143.39
2018-06-23T20:51:04.377Z,101145.22
2018-06-23T20:53:32.904Z,101145.98
2018-06-23T20:56:02.368Z,101143.41
2018-06-23T20:58:30.917Z,101139.55
2018-06-23T21:00:59.701Z,101140.03
2018-06-23T21:03:28.227Z,101130.13
2018-06-23T21:05:57.257Z,101137.08
2018-06-23T21:08:26.005Z,101136.73
2018-06-23T21:10:54.559Z,101131.66
2018-06-23T21:13:23.078Z,101133.67
2018-06-23T21:15:51.559Z,101128.45
2018-06-23T21:18:20.057Z,101132.70
2018-06-23T21:20:49.151Z,101134.05
2018-06-23T21:23:18.236Z,101136.23
2018-06-23T21:25:47.192Z,101134.89
2018-06-23T21:28:16.557Z,101141.23
2018-06-23T21:30:45.293Z,101138.72
2018-06-23T21:33:13.821Z,101136.52
2018-06-23T21:35:42.553Z,101125.26
2018-06-23T21:38:11.173Z,101128.34
2018-06-23T21:40:39.706Z,101126.16
2018-06-23T21:43:08.502Z,101131.73
2018-06-23T21:45:37.176Z,101136.88
2018-06-23T21:48:05.901Z,101130.77
2018-06-23T21:50:34.519Z,101129.49
2018-06-23T21:53:03.308Z,101128.14
2018-06-23T21:55:31.820Z,101126.02
2018-06-23T21:58:00.407Z,101125.57
2018-06-23T22:00:34.395Z,101128.14
2018-06-23T22:03:07.135Z,101125.94
2018-06-23T22:05:36.194Z,101125.89
2018-06-23T22:08:05.486Z,101127.66
2018-06-23T22:10:34.127Z,101129.69
2018-06-23T22:13:02.767Z,101122.04
2018-06-23T22:15:31.673Z,101123.72
2018-06-23T22:18:00.499Z,101122.89
2018-06-23T22:20:29.160Z,101116.44
2018-06-23T22:22:57.737Z,101113.08
2018-06-23T22:25:26.699Z,101114.72
2018-06-23T22:27:56.180Z,101117.26
2018-06-23T22:30:25.111Z,101114.28
2018-06-23T22:32:53.738Z,101110.38
2018-06-23T22:35:22.474Z,101114.69
2018-06-23T22:37:51.074Z,101116.44
2018-06-23T22:40:20.518Z,101110.86
2018-06-23T22:42:49.143Z,101110.40
2018-06-23T22:45:17.922Z,101111.22
2018-06-23T22:47:47.007Z,101105.23
2018-06-23T22:50:15.890Z,101110.78
2018-06-23T22:52:44.686Z,101110.40
2018-06-23T22:55:13.180Z,101112.11
2018-06-23T22:57:41.738Z,101100.94
2018-06-23T23:00:12.515Z,101104.86
2018-06-23T23:02:41.212Z,101100.55
2018-06-23T23:05:10.519Z,101097.17
2018-06-23T23:07:39.515Z,101097.15
2018-06-23T23:10:10.634Z,101099.26
2018-06-23T23:12:39.513Z,101095.81
2018-06-23T23:15:08.071Z,101092.42
2018-06-23T23:17:36.655Z,101088.55
2018-06-23T23:20:06.922Z,101091.58
2018-06-23T23:22:35.673Z,101092.41
2018-06-23T23:25:04.886Z,101086.88
2018-06-23T23:27:33.627Z,101085.58
2018-06-23T23:30:02.359Z,101090.27
2018-06-23T23:32:31.061Z,101083.41
2018-06-23T23:34:59.550Z,101077.05
2018-06-23T23:37:28.584Z,101082.55
2018-06-23T23:39:57.097Z,101077.41
2018-06-23T23:42:25.688Z,101077.86
2018-06-23T23:44:55.827Z,101071.44
2018-06-23T23:47:24.392Z,101074.49
2018-06-23T23:49:52.926Z,101069.81
2018-06-23T23:52:21.454Z,101071.45
2018-06-23T23:54:50.025Z,101067.22
2018-06-23T23:57:18.924Z,101061.66
2018-06-23T23:59:47.744Z,101059.53
